sensor_id;sensor_type;location;lat;lon;timestamp;P1;durP1;ratioP1;P2;durP2;ratioP2
57311;SDS011;43154;50.966;18.316;2022-10-16T00:00:38;21.50;;;10.50;;
57311;SDS011;43154;50.966;18.316;2022-10-16T00:03:04;21.40;;;10.80;;
57311;SDS011;43154;50.966;18.316;2022-10-16T00:05:31;24.10;;;11.90;;
57311;SDS011;43154;50.966;18.316;2022-10-16T00:07:57;27.30;;;11.80;;
57311;SDS011;43154;50.966;18.316;2022-10-16T00:10:22;23.20;;;11.10;;
57311;SDS011;43154;50.966;18.316;2022-10-16T00:12:49;22.10;;;11.30;;
57311;SDS011;43154;50.966;18.316;2022-10-16T00:15:14;25.10;;;12.00;;
57311;SDS011;43154;50.966;18.316;2022-10-16T00:17:40;26.00;;;11.40;;
57311;SDS011;43154;50.966;18.316;2022-10-16T00:20:05;27.00;;;11.60;;
57311;SDS011;43154;50.966;18.316;2022-10-16T00:22:32;25.30;;;12.00;;
57311;SDS011;43154;50.966;18.316;2022-10-16T00:24:58;24.00;;;12.80;;
57311;SDS011;43154;50.966;18.316;2022-10-16T00:27:23;25.80;;;12.70;;
57311;SDS011;43154;50.966;18.316;2022-10-16T00:29:52;24.00;;;11.50;;
57311;SDS011;43154;50.966;18.316;2022-10-16T00:32:18;25.10;;;12.60;;
57311;SDS011;43154;50.966;18.316;2022-10-16T00:34:44;24.80;;;11.60;;
57311;SDS011;43154;50.966;18.316;2022-10-16T00:37:09;29.70;;;12.70;;
57311;SDS011;43154;50.966;18.316;2022-10-16T00:39:35;28.20;;;12.50;;
57311;SDS011;43154;50.966;18.316;2022-10-16T00:42:00;28.60;;;13.60;;
57311;SDS011;43154;50.966;18.316;2022-10-16T00:44:46;28.90;;;14.30;;
57311;SDS011;43154;50.966;18.316;2022-10-16T00:47:25;32.80;;;14.60;;
57311;SDS011;43154;50.966;18.316;2022-10-16T00:49:55;28.30;;;13.00;;
57311;SDS011;43154;50.966;18.316;2022-10-16T00:52:44;31.90;;;14.80;;
57311;SDS011;43154;50.966;18.316;2022-10-16T00:55:12;30.70;;;15.00;;
57311;SDS011;43154;50.966;18.316;2022-10-16T00:57:38;31.10;;;14.80;;
57311;SDS011;43154;50.966;18.316;2022-10-16T01:00:04;33.60;;;15.50;;
57311;SDS011;43154;50.966;18.316;2022-10-16T01:02:32;29.00;;;13.70;;
57311;SDS011;43154;50.966;18.316;2022-10-16T01:04:57;31.80;;;15.10;;
57311;SDS011;43154;50.966;18.316;2022-10-16T01:10:17;34.30;;;15.90;;
57311;SDS011;43154;50.966;18.316;2022-10-16T01:12:52;32.10;;;16.20;;
57311;SDS011;43154;50.966;18.316;2022-10-16T01:20:50;32.00;;;15.60;;
57311;SDS011;43154;50.966;18.316;2022-10-16T01:28:27;34.40;;;16.10;;
57311;SDS011;43154;50.966;18.316;2022-10-16T01:30:59;31.20;;;16.40;;
57311;SDS011;43154;50.966;18.316;2022-10-16T01:33:32;35.40;;;17.60;;
57311;SDS011;43154;50.966;18.316;2022-10-16T01:36:03;31.70;;;15.90;;
57311;SDS011;43154;50.966;18.316;2022-10-16T01:38:35;35.90;;;16.90;;
57311;SDS011;43154;50.966;18.316;2022-10-16T01:43:40;36.50;;;17.10;;
57311;SDS011;43154;50.966;18.316;2022-10-16T01:46:09;36.80;;;17.80;;
57311;SDS011;43154;50.966;18.316;2022-10-16T01:48:35;33.40;;;16.70;;
57311;SDS011;43154;50.966;18.316;2022-10-16T01:51:06;33.40;;;16.70;;
57311;SDS011;43154;50.966;18.316;2022-10-16T01:53:34;35.30;;;18.30;;
57311;SDS011;43154;50.966;18.316;2022-10-16T01:56:00;35.50;;;17.90;;
57311;SDS011;43154;50.966;18.316;2022-10-16T01:58:27;35.70;;;17.00;;
57311;SDS011;43154;50.966;18.316;2022-10-16T02:00:55;35.50;;;17.40;;
57311;SDS011;43154;50.966;18.316;2022-10-16T02:03:22;33.80;;;17.80;;
57311;SDS011;43154;50.966;18.316;2022-10-16T02:05:51;35.10;;;17.10;;
57311;SDS011;43154;50.966;18.316;2022-10-16T02:08:19;32.40;;;17.10;;
57311;SDS011;43154;50.966;18.316;2022-10-16T02:10:47;33.70;;;17.30;;
57311;SDS011;43154;50.966;18.316;2022-10-16T02:13:16;34.30;;;17.90;;
57311;SDS011;43154;50.966;18.316;2022-10-16T02:15:46;34.00;;;16.70;;
57311;SDS011;43154;50.966;18.316;2022-10-16T02:18:12;35.30;;;18.30;;
57311;SDS011;43154;50.966;18.316;2022-10-16T02:20:40;31.30;;;16.90;;
57311;SDS011;43154;50.966;18.316;2022-10-16T02:23:24;36.50;;;17.90;;
57311;SDS011;43154;50.966;18.316;2022-10-16T02:26:17;35.30;;;17.30;;
57311;SDS011;43154;50.966;18.316;2022-10-16T02:28:48;32.80;;;17.40;;
57311;SDS011;43154;50.966;18.316;2022-10-16T02:31:21;33.80;;;16.70;;
57311;SDS011;43154;50.966;18.316;2022-10-16T02:33:51;33.30;;;17.00;;
57311;SDS011;43154;50.966;18.316;2022-10-16T02:36:18;34.10;;;16.50;;
57311;SDS011;43154;50.966;18.316;2022-10-16T02:38:44;31.70;;;16.50;;
57311;SDS011;43154;50.966;18.316;2022-10-16T02:41:09;40.00;;;17.70;;
57311;SDS011;43154;50.966;18.316;2022-10-16T02:43:35;32.10;;;16.90;;
57311;SDS011;43154;50.966;18.316;2022-10-16T02:46:01;33.80;;;16.80;;
57311;SDS011;43154;50.966;18.316;2022-10-16T02:48:26;31.30;;;15.90;;
57311;SDS011;43154;50.966;18.316;2022-10-16T02:50:51;32.20;;;16.70;;
57311;SDS011;43154;50.966;18.316;2022-10-16T02:53:17;28.50;;;15.50;;
57311;SDS011;43154;50.966;18.316;2022-10-16T02:55:42;29.70;;;15.80;;
57311;SDS011;43154;50.966;18.316;2022-10-16T02:58:09;29.20;;;14.90;;
57311;SDS011;43154;50.966;18.316;2022-10-16T03:00:34;30.50;;;16.20;;
57311;SDS011;43154;50.966;18.316;2022-10-16T03:03:00;29.20;;;15.40;;
57311;SDS011;43154;50.966;18.316;2022-10-16T03:05:25;29.10;;;15.20;;
57311;SDS011;43154;50.966;18.316;2022-10-16T03:07:51;32.80;;;16.30;;
57311;SDS011;43154;50.966;18.316;2022-10-16T03:10:18;32.10;;;16.00;;
57311;SDS011;43154;50.966;18.316;2022-10-16T03:12:43;31.00;;;15.20;;
57311;SDS011;43154;50.966;18.316;2022-10-16T03:15:09;28.80;;;15.00;;
57311;SDS011;43154;50.966;18.316;2022-10-16T03:17:35;26.50;;;14.60;;
57311;SDS011;43154;50.966;18.316;2022-10-16T03:20:00;29.50;;;14.50;;
57311;SDS011;43154;50.966;18.316;2022-10-16T03:28:51;27.20;;;14.10;;
57311;SDS011;43154;50.966;18.316;2022-10-16T03:31:17;27.80;;;14.50;;
57311;SDS011;43154;50.966;18.316;2022-10-16T03:33:42;28.70;;;14.50;;
57311;SDS011;43154;50.966;18.316;2022-10-16T03:36:08;29.20;;;14.40;;
57311;SDS011;43154;50.966;18.316;2022-10-16T03:38:33;26.60;;;14.40;;
57311;SDS011;43154;50.966;18.316;2022-10-16T03:40:59;26.30;;;14.00;;
57311;SDS011;43154;50.966;18.316;2022-10-16T03:43:24;25.70;;;13.60;;
57311;SDS011;43154;50.966;18.316;2022-10-16T03:45:50;25.40;;;13.90;;
57311;SDS011;43154;50.966;18.316;2022-10-16T03:48:17;28.50;;;14.50;;
57311;SDS011;43154;50.966;18.316;2022-10-16T03:50:43;28.00;;;14.90;;
57311;SDS011;43154;50.966;18.316;2022-10-16T03:53:09;27.80;;;13.80;;
57311;SDS011;43154;50.966;18.316;2022-10-16T03:55:35;28.80;;;14.20;;
57311;SDS011;43154;50.966;18.316;2022-10-16T03:58:01;28.20;;;14.00;;
57311;SDS011;43154;50.966;18.316;2022-10-16T04:00:26;28.80;;;14.40;;
57311;SDS011;43154;50.966;18.316;2022-10-16T04:02:52;25.50;;;13.50;;
57311;SDS011;43154;50.966;18.316;2022-10-16T04:05:17;28.60;;;14.40;;
57311;SDS011;43154;50.966;18.316;2022-10-16T04:07:43;27.10;;;14.30;;
57311;SDS011;43154;50.966;18.316;2022-10-16T04:10:08;24.80;;;13.00;;
57311;SDS011;43154;50.966;18.316;2022-10-16T04:12:34;27.70;;;14.00;;
57311;SDS011;43154;50.966;18.316;2022-10-16T04:15:00;25.80;;;13.50;;
57311;SDS011;43154;50.966;18.316;2022-10-16T04:17:25;29.50;;;14.30;;
57311;SDS011;43154;50.966;18.316;2022-10-16T04:19:51;26.40;;;13.90;;
57311;SDS011;43154;50.966;18.316;2022-10-16T04:22:16;26.20;;;14.50;;
57311;SDS011;43154;50.966;18.316;2022-10-16T04:24:42;29.80;;;13.70;;
57311;SDS011;43154;50.966;18.316;2022-10-16T04:27:07;26.50;;;13.80;;
57311;SDS011;43154;50.966;18.316;2022-10-16T04:29:33;27.10;;;13.90;;
57311;SDS011;43154;50.966;18.316;2022-10-16T04:31:58;27.20;;;14.10;;
57311;SDS011;43154;50.966;18.316;2022-10-16T04:34:24;29.00;;;13.80;;
57311;SDS011;43154;50.966;18.316;2022-10-16T04:36:49;29.50;;;14.30;;
57311;SDS011;43154;50.966;18.316;2022-10-16T04:39:15;26.00;;;13.40;;
57311;SDS011;43154;50.966;18.316;2022-10-16T04:41:41;29.80;;;15.20;;
57311;SDS011;43154;50.966;18.316;2022-10-16T04:44:07;29.50;;;14.70;;
57311;SDS011;43154;50.966;18.316;2022-10-16T04:46:33;28.60;;;14.20;;
57311;SDS011;43154;50.966;18.316;2022-10-16T04:48:59;28.80;;;13.60;;
57311;SDS011;43154;50.966;18.316;2022-10-16T04:51:24;30.10;;;14.90;;
57311;SDS011;43154;50.966;18.316;2022-10-16T04:53:51;29.70;;;15.80;;
57311;SDS011;43154;50.966;18.316;2022-10-16T04:56:17;28.30;;;15.10;;
57311;SDS011;43154;50.966;18.316;2022-10-16T04:58:42;30.00;;;15.50;;
57311;SDS011;43154;50.966;18.316;2022-10-16T05:01:08;32.10;;;16.00;;
57311;SDS011;43154;50.966;18.316;2022-10-16T05:03:33;30.60;;;14.80;;
57311;SDS011;43154;50.966;18.316;2022-10-16T05:05:59;30.00;;;15.80;;
57311;SDS011;43154;50.966;18.316;2022-10-16T05:08:25;28.90;;;14.40;;
57311;SDS011;43154;50.966;18.316;2022-10-16T05:10:50;31.60;;;15.60;;
57311;SDS011;43154;50.966;18.316;2022-10-16T05:13:16;29.80;;;14.90;;
57311;SDS011;43154;50.966;18.316;2022-10-16T05:15:46;29.40;;;15.60;;
57311;SDS011;43154;50.966;18.316;2022-10-16T05:18:12;31.90;;;15.30;;
57311;SDS011;43154;50.966;18.316;2022-10-16T05:20:37;33.30;;;16.30;;
57311;SDS011;43154;50.966;18.316;2022-10-16T05:23:03;32.50;;;16.30;;
57311;SDS011;43154;50.966;18.316;2022-10-16T05:25:28;32.80;;;17.00;;
57311;SDS011;43154;50.966;18.316;2022-10-16T05:27:54;35.50;;;15.70;;
57311;SDS011;43154;50.966;18.316;2022-10-16T05:30:19;35.20;;;17.40;;
57311;SDS011;43154;50.966;18.316;2022-10-16T05:32:49;35.50;;;17.00;;
57311;SDS011;43154;50.966;18.316;2022-10-16T05:35:16;37.10;;;18.20;;
57311;SDS011;43154;50.966;18.316;2022-10-16T05:37:42;36.50;;;17.50;;
57311;SDS011;43154;50.966;18.316;2022-10-16T05:40:08;40.30;;;18.10;;
57311;SDS011;43154;50.966;18.316;2022-10-16T05:42:34;33.80;;;17.00;;
57311;SDS011;43154;50.966;18.316;2022-10-16T05:45:00;41.70;;;19.10;;
57311;SDS011;43154;50.966;18.316;2022-10-16T05:47:25;34.50;;;18.30;;
57311;SDS011;43154;50.966;18.316;2022-10-16T05:49:51;36.00;;;18.10;;
57311;SDS011;43154;50.966;18.316;2022-10-16T05:52:17;33.90;;;17.80;;
57311;SDS011;43154;50.966;18.316;2022-10-16T05:54:43;42.10;;;18.40;;
57311;SDS011;43154;50.966;18.316;2022-10-16T05:57:08;37.80;;;19.70;;
57311;SDS011;43154;50.966;18.316;2022-10-16T05:59:34;36.90;;;19.30;;
57311;SDS011;43154;50.966;18.316;2022-10-16T06:01:59;43.80;;;20.60;;
57311;SDS011;43154;50.966;18.316;2022-10-16T06:04:25;37.70;;;19.30;;
57311;SDS011;43154;50.966;18.316;2022-10-16T06:06:50;41.00;;;20.30;;
57311;SDS011;43154;50.966;18.316;2022-10-16T06:09:16;39.20;;;20.70;;
57311;SDS011;43154;50.966;18.316;2022-10-16T06:11:42;39.90;;;20.40;;
57311;SDS011;43154;50.966;18.316;2022-10-16T06:14:07;39.90;;;20.40;;
57311;SDS011;43154;50.966;18.316;2022-10-16T06:16:34;38.80;;;20.70;;
57311;SDS011;43154;50.966;18.316;2022-10-16T06:19:01;37.00;;;19.70;;
57311;SDS011;43154;50.966;18.316;2022-10-16T06:21:31;37.70;;;19.80;;
57311;SDS011;43154;50.966;18.316;2022-10-16T06:23:57;38.70;;;19.70;;
57311;SDS011;43154;50.966;18.316;2022-10-16T06:26:27;36.20;;;20.30;;
57311;SDS011;43154;50.966;18.316;2022-10-16T06:28:54;39.60;;;21.40;;
57311;SDS011;43154;50.966;18.316;2022-10-16T06:31:21;39.10;;;19.50;;
57311;SDS011;43154;50.966;18.316;2022-10-16T06:33:49;37.70;;;19.40;;
57311;SDS011;43154;50.966;18.316;2022-10-16T06:36:16;35.00;;;19.10;;
57311;SDS011;43154;50.966;18.316;2022-10-16T06:38:42;36.60;;;19.60;;
57311;SDS011;43154;50.966;18.316;2022-10-16T06:41:16;41.10;;;19.90;;
57311;SDS011;43154;50.966;18.316;2022-10-16T06:43:43;34.50;;;19.20;;
57311;SDS011;43154;50.966;18.316;2022-10-16T06:46:13;35.30;;;19.70;;
57311;SDS011;43154;50.966;18.316;2022-10-16T06:48:40;34.80;;;19.70;;
57311;SDS011;43154;50.966;18.316;2022-10-16T06:51:08;36.30;;;19.10;;
57311;SDS011;43154;50.966;18.316;2022-10-16T06:53:36;32.50;;;18.50;;
57311;SDS011;43154;50.966;18.316;2022-10-16T06:56:10;36.30;;;19.10;;
57311;SDS011;43154;50.966;18.316;2022-10-16T06:58:37;35.40;;;19.20;;
57311;SDS011;43154;50.966;18.316;2022-10-16T07:01:03;33.60;;;18.60;;
57311;SDS011;43154;50.966;18.316;2022-10-16T07:03:29;33.00;;;19.60;;
57311;SDS011;43154;50.966;18.316;2022-10-16T07:05:55;33.70;;;19.10;;
57311;SDS011;43154;50.966;18.316;2022-10-16T07:08:21;30.40;;;17.80;;
57311;SDS011;43154;50.966;18.316;2022-10-16T07:10:47;31.30;;;18.20;;
57311;SDS011;43154;50.966;18.316;2022-10-16T07:13:13;30.90;;;17.20;;
57311;SDS011;43154;50.966;18.316;2022-10-16T07:15:40;31.40;;;17.80;;
57311;SDS011;43154;50.966;18.316;2022-10-16T07:18:06;30.70;;;17.60;;
57311;SDS011;43154;50.966;18.316;2022-10-16T07:20:32;31.40;;;17.80;;
57311;SDS011;43154;50.966;18.316;2022-10-16T07:22:58;31.70;;;17.50;;
57311;SDS011;43154;50.966;18.316;2022-10-16T07:25:24;30.70;;;17.50;;
57311;SDS011;43154;50.966;18.316;2022-10-16T07:27:49;35.50;;;17.70;;
57311;SDS011;43154;50.966;18.316;2022-10-16T07:30:15;31.30;;;18.00;;
57311;SDS011;43154;50.966;18.316;2022-10-16T07:32:41;32.80;;;17.50;;
57311;SDS011;43154;50.966;18.316;2022-10-16T07:35:06;30.00;;;18.00;;
57311;SDS011;43154;50.966;18.316;2022-10-16T07:37:32;28.30;;;17.10;;
57311;SDS011;43154;50.966;18.316;2022-10-16T07:39:57;33.30;;;18.20;;
57311;SDS011;43154;50.966;18.316;2022-10-16T07:42:23;33.30;;;17.10;;
57311;SDS011;43154;50.966;18.316;2022-10-16T07:44:49;31.10;;;18.00;;
57311;SDS011;43154;50.966;18.316;2022-10-16T07:47:14;30.30;;;17.00;;
57311;SDS011;43154;50.966;18.316;2022-10-16T07:49:40;29.80;;;17.10;;
57311;SDS011;43154;50.966;18.316;2022-10-16T07:52:05;26.80;;;15.60;;
57311;SDS011;43154;50.966;18.316;2022-10-16T07:54:31;28.10;;;16.70;;
57311;SDS011;43154;50.966;18.316;2022-10-16T07:56:56;27.40;;;16.20;;
57311;SDS011;43154;50.966;18.316;2022-10-16T07:59:22;28.50;;;15.90;;
57311;SDS011;43154;50.966;18.316;2022-10-16T08:01:48;33.30;;;16.10;;
57311;SDS011;43154;50.966;18.316;2022-10-16T08:04:14;25.30;;;14.90;;
57311;SDS011;43154;50.966;18.316;2022-10-16T08:06:40;28.00;;;15.60;;
57311;SDS011;43154;50.966;18.316;2022-10-16T08:09:07;24.70;;;15.20;;
57311;SDS011;43154;50.966;18.316;2022-10-16T08:11:33;28.70;;;15.20;;
57311;SDS011;43154;50.966;18.316;2022-10-16T08:13:58;27.20;;;15.10;;
57311;SDS011;43154;50.966;18.316;2022-10-16T08:16:24;29.10;;;15.40;;
57311;SDS011;43154;50.966;18.316;2022-10-16T08:18:50;27.10;;;14.60;;
57311;SDS011;43154;50.966;18.316;2022-10-16T08:21:18;26.80;;;14.60;;
57311;SDS011;43154;50.966;18.316;2022-10-16T08:23:45;26.40;;;14.00;;
57311;SDS011;43154;50.966;18.316;2022-10-16T08:26:11;24.60;;;13.20;;
57311;SDS011;43154;50.966;18.316;2022-10-16T08:28:37;27.60;;;14.50;;
57311;SDS011;43154;50.966;18.316;2022-10-16T08:31:10;24.40;;;13.70;;
57311;SDS011;43154;50.966;18.316;2022-10-16T08:33:38;23.90;;;13.90;;
57311;SDS011;43154;50.966;18.316;2022-10-16T08:36:06;26.00;;;13.40;;
57311;SDS011;43154;50.966;18.316;2022-10-16T08:38:32;24.90;;;14.20;;
57311;SDS011;43154;50.966;18.316;2022-10-16T08:49:01;28.30;;;13.70;;
57311;SDS011;43154;50.966;18.316;2022-10-16T08:51:29;23.70;;;13.30;;
57311;SDS011;43154;50.966;18.316;2022-10-16T08:53:57;24.10;;;12.80;;
57311;SDS011;43154;50.966;18.316;2022-10-16T08:56:24;25.70;;;13.10;;
57311;SDS011;43154;50.966;18.316;2022-10-16T08:58:51;22.70;;;12.60;;
57311;SDS011;43154;50.966;18.316;2022-10-16T09:01:18;25.80;;;12.80;;
57311;SDS011;43154;50.966;18.316;2022-10-16T09:03:55;44.10;;;23.40;;
57311;SDS011;43154;50.966;18.316;2022-10-16T09:06:30;47.60;;;24.30;;
57311;SDS011;43154;50.966;18.316;2022-10-16T09:11:37;39.70;;;22.20;;
57311;SDS011;43154;50.966;18.316;2022-10-16T09:16:50;27.90;;;15.80;;
57311;SDS011;43154;50.966;18.316;2022-10-16T09:19:25;22.90;;;13.30;;
57311;SDS011;43154;50.966;18.316;2022-10-16T09:21:57;22.00;;;12.50;;
57311;SDS011;43154;50.966;18.316;2022-10-16T09:24:25;25.70;;;13.10;;
57311;SDS011;43154;50.966;18.316;2022-10-16T09:26:51;24.60;;;12.90;;
57311;SDS011;43154;50.966;18.316;2022-10-16T09:29:18;23.90;;;13.60;;
57311;SDS011;43154;50.966;18.316;2022-10-16T09:31:45;22.30;;;12.40;;
57311;SDS011;43154;50.966;18.316;2022-10-16T09:34:15;23.60;;;13.00;;
57311;SDS011;43154;50.966;18.316;2022-10-16T09:36:54;23.40;;;12.70;;
57311;SDS011;43154;50.966;18.316;2022-10-16T09:39:21;22.50;;;11.50;;
57311;SDS011;43154;50.966;18.316;2022-10-16T09:41:46;21.60;;;12.20;;
57311;SDS011;43154;50.966;18.316;2022-10-16T09:44:19;20.90;;;11.80;;
57311;SDS011;43154;50.966;18.316;2022-10-16T09:47:11;23.70;;;12.10;;
57311;SDS011;43154;50.966;18.316;2022-10-16T09:49:38;21.20;;;12.40;;
57311;SDS011;43154;50.966;18.316;2022-10-16T09:52:04;20.90;;;10.90;;
57311;SDS011;43154;50.966;18.316;2022-10-16T09:54:34;23.40;;;12.10;;
57311;SDS011;43154;50.966;18.316;2022-10-16T09:57:04;23.90;;;12.30;;
57311;SDS011;43154;50.966;18.316;2022-10-16T09:59:31;24.90;;;12.50;;
57311;SDS011;43154;50.966;18.316;2022-10-16T10:01:58;24.90;;;12.90;;
57311;SDS011;43154;50.966;18.316;2022-10-16T10:04:36;20.80;;;11.50;;
57311;SDS011;43154;50.966;18.316;2022-10-16T10:07:06;23.30;;;11.60;;
57311;SDS011;43154;50.966;18.316;2022-10-16T10:09:44;25.20;;;11.70;;
57311;SDS011;43154;50.966;18.316;2022-10-16T10:12:17;19.70;;;11.20;;
57311;SDS011;43154;50.966;18.316;2022-10-16T10:14:51;24.40;;;12.10;;
57311;SDS011;43154;50.966;18.316;2022-10-16T10:17:19;21.10;;;11.70;;
57311;SDS011;43154;50.966;18.316;2022-10-16T10:22:17;23.20;;;12.10;;
57311;SDS011;43154;50.966;18.316;2022-10-16T10:24:44;22.20;;;11.80;;
57311;SDS011;43154;50.966;18.316;2022-10-16T10:27:19;24.60;;;12.50;;
57311;SDS011;43154;50.966;18.316;2022-10-16T10:29:49;18.40;;;10.60;;
57311;SDS011;43154;50.966;18.316;2022-10-16T10:41:13;20.80;;;10.90;;
57311;SDS011;43154;50.966;18.316;2022-10-16T10:46:54;22.70;;;11.60;;
57311;SDS011;43154;50.966;18.316;2022-10-16T10:54:45;19.80;;;10.70;;
57311;SDS011;43154;50.966;18.316;2022-10-16T10:57:29;19.60;;;10.50;;
57311;SDS011;43154;50.966;18.316;2022-10-16T11:02:41;19.40;;;10.20;;
57311;SDS011;43154;50.966;18.316;2022-10-16T11:05:19;17.50;;;10.10;;
57311;SDS011;43154;50.966;18.316;2022-10-16T11:08:04;17.50;;;9.20;;
57311;SDS011;43154;50.966;18.316;2022-10-16T11:10:42;18.60;;;10.10;;
57311;SDS011;43154;50.966;18.316;2022-10-16T11:15:57;18.30;;;10.10;;
57311;SDS011;43154;50.966;18.316;2022-10-16T11:18:26;18.00;;;9.60;;
57311;SDS011;43154;50.966;18.316;2022-10-16T11:20:57;19.40;;;9.90;;
57311;SDS011;43154;50.966;18.316;2022-10-16T11:26:19;19.20;;;10.10;;
57311;SDS011;43154;50.966;18.316;2022-10-16T11:28:50;20.60;;;10.40;;
57311;SDS011;43154;50.966;18.316;2022-10-16T11:34:11;21.00;;;10.60;;
57311;SDS011;43154;50.966;18.316;2022-10-16T11:36:44;18.50;;;10.00;;
57311;SDS011;43154;50.966;18.316;2022-10-16T11:39:21;19.00;;;10.50;;
57311;SDS011;43154;50.966;18.316;2022-10-16T11:41:50;22.70;;;10.60;;
57311;SDS011;43154;50.966;18.316;2022-10-16T11:44:32;18.40;;;10.40;;
57311;SDS011;43154;50.966;18.316;2022-10-16T11:50:23;20.70;;;10.80;;
57311;SDS011;43154;50.966;18.316;2022-10-16T11:55:37;18.40;;;10.40;;
57311;SDS011;43154;50.966;18.316;2022-10-16T12:00:53;21.00;;;11.00;;
57311;SDS011;43154;50.966;18.316;2022-10-16T12:03:31;20.20;;;10.40;;
57311;SDS011;43154;50.966;18.316;2022-10-16T12:06:30;20.10;;;10.00;;
57311;SDS011;43154;50.966;18.316;2022-10-16T12:09:03;19.60;;;10.40;;
57311;SDS011;43154;50.966;18.316;2022-10-16T12:14:05;17.20;;;10.40;;
57311;SDS011;43154;50.966;18.316;2022-10-16T12:16:55;20.70;;;9.80;;
57311;SDS011;43154;50.966;18.316;2022-10-16T12:19:24;18.80;;;9.60;;
57311;SDS011;43154;50.966;18.316;2022-10-16T12:21:50;18.80;;;9.70;;
57311;SDS011;43154;50.966;18.316;2022-10-16T12:24:21;20.70;;;10.20;;
57311;SDS011;43154;50.966;18.316;2022-10-16T12:26:52;16.70;;;9.50;;
57311;SDS011;43154;50.966;18.316;2022-10-16T12:31:48;18.60;;;9.50;;
57311;SDS011;43154;50.966;18.316;2022-10-16T12:37:18;17.60;;;10.00;;
57311;SDS011;43154;50.966;18.316;2022-10-16T12:42:31;20.10;;;10.10;;
57311;SDS011;43154;50.966;18.316;2022-10-16T12:44:58;19.40;;;10.60;;
57311;SDS011;43154;50.966;18.316;2022-10-16T12:49:56;18.00;;;10.20;;
57311;SDS011;43154;50.966;18.316;2022-10-16T12:55:02;22.20;;;10.00;;
57311;SDS011;43154;50.966;18.316;2022-10-16T12:57:54;19.80;;;9.90;;
57311;SDS011;43154;50.966;18.316;2022-10-16T13:00:56;21.90;;;10.90;;
57311;SDS011;43154;50.966;18.316;2022-10-16T13:06:43;25.00;;;10.80;;
57311;SDS011;43154;50.966;18.316;2022-10-16T13:14:46;23.90;;;10.50;;
57311;SDS011;43154;50.966;18.316;2022-10-16T13:17:25;25.90;;;10.40;;
57311;SDS011;43154;50.966;18.316;2022-10-16T13:20:00;23.20;;;10.80;;
57311;SDS011;43154;50.966;18.316;2022-10-16T13:25:18;21.40;;;10.20;;
57311;SDS011;43154;50.966;18.316;2022-10-16T13:27:53;18.00;;;9.70;;
57311;SDS011;43154;50.966;18.316;2022-10-16T13:30:38;22.00;;;10.30;;
57311;SDS011;43154;50.966;18.316;2022-10-16T13:33:54;21.30;;;10.10;;
57311;SDS011;43154;50.966;18.316;2022-10-16T13:36:19;25.10;;;10.70;;
57311;SDS011;43154;50.966;18.316;2022-10-16T13:38:50;19.90;;;10.50;;
57311;SDS011;43154;50.966;18.316;2022-10-16T13:41:25;19.10;;;10.30;;
57311;SDS011;43154;50.966;18.316;2022-10-16T13:43:51;21.50;;;10.90;;
57311;SDS011;43154;50.966;18.316;2022-10-16T13:46:22;19.00;;;10.20;;
57311;SDS011;43154;50.966;18.316;2022-10-16T13:48:58;20.80;;;10.70;;
57311;SDS011;43154;50.966;18.316;2022-10-16T13:51:25;19.50;;;10.60;;
57311;SDS011;43154;50.966;18.316;2022-10-16T13:53:50;22.30;;;11.00;;
57311;SDS011;43154;50.966;18.316;2022-10-16T13:56:17;20.30;;;11.20;;
57311;SDS011;43154;50.966;18.316;2022-10-16T13:58:44;20.10;;;10.40;;
57311;SDS011;43154;50.966;18.316;2022-10-16T14:01:18;19.70;;;10.80;;
57311;SDS011;43154;50.966;18.316;2022-10-16T14:03:46;19.00;;;9.80;;
57311;SDS011;43154;50.966;18.316;2022-10-16T14:06:13;16.80;;;9.40;;
57311;SDS011;43154;50.966;18.316;2022-10-16T14:08:42;18.50;;;10.20;;
57311;SDS011;43154;50.966;18.316;2022-10-16T14:11:09;18.50;;;9.60;;
57311;SDS011;43154;50.966;18.316;2022-10-16T14:13:38;16.20;;;9.50;;
57311;SDS011;43154;50.966;18.316;2022-10-16T14:16:06;18.10;;;9.70;;
57311;SDS011;43154;50.966;18.316;2022-10-16T14:18:34;21.60;;;9.90;;
57311;SDS011;43154;50.966;18.316;2022-10-16T14:21:04;22.70;;;13.20;;
57311;SDS011;43154;50.966;18.316;2022-10-16T14:23:33;24.00;;;12.40;;
57311;SDS011;43154;50.966;18.316;2022-10-16T14:28:36;25.30;;;11.50;;
57311;SDS011;43154;50.966;18.316;2022-10-16T14:31:16;34.10;;;17.00;;
57311;SDS011;43154;50.966;18.316;2022-10-16T14:33:56;22.70;;;12.10;;
57311;SDS011;43154;50.966;18.316;2022-10-16T14:36:22;21.20;;;10.60;;
57311;SDS011;43154;50.966;18.316;2022-10-16T14:39:14;21.90;;;11.60;;
57311;SDS011;43154;50.966;18.316;2022-10-16T14:41:45;23.90;;;11.30;;
57311;SDS011;43154;50.966;18.316;2022-10-16T14:44:13;21.80;;;10.50;;
57311;SDS011;43154;50.966;18.316;2022-10-16T14:46:40;22.10;;;12.10;;
57311;SDS011;43154;50.966;18.316;2022-10-16T14:51:36;18.50;;;10.60;;
57311;SDS011;43154;50.966;18.316;2022-10-16T14:54:02;23.10;;;12.00;;
57311;SDS011;43154;50.966;18.316;2022-10-16T14:56:29;21.60;;;11.40;;
57311;SDS011;43154;50.966;18.316;2022-10-16T14:58:56;21.30;;;10.80;;
57311;SDS011;43154;50.966;18.316;2022-10-16T15:01:22;19.30;;;11.00;;
57311;SDS011;43154;50.966;18.316;2022-10-16T15:03:48;21.20;;;11.30;;
57311;SDS011;43154;50.966;18.316;2022-10-16T15:06:14;24.00;;;11.40;;
57311;SDS011;43154;50.966;18.316;2022-10-16T15:08:40;19.50;;;10.90;;
57311;SDS011;43154;50.966;18.316;2022-10-16T15:11:39;20.00;;;11.70;;
57311;SDS011;43154;50.966;18.316;2022-10-16T15:13:57;23.70;;;11.80;;
57311;SDS011;43154;50.966;18.316;2022-10-16T15:16:23;23.80;;;11.90;;
57311;SDS011;43154;50.966;18.316;2022-10-16T15:18:49;23.40;;;12.30;;
57311;SDS011;43154;50.966;18.316;2022-10-16T15:21:25;25.60;;;12.20;;
57311;SDS011;43154;50.966;18.316;2022-10-16T15:23:55;21.20;;;12.50;;
57311;SDS011;43154;50.966;18.316;2022-10-16T15:26:22;22.50;;;12.90;;
57311;SDS011;43154;50.966;18.316;2022-10-16T15:28:48;21.10;;;12.30;;
57311;SDS011;43154;50.966;18.316;2022-10-16T15:31:14;26.10;;;14.00;;
57311;SDS011;43154;50.966;18.316;2022-10-16T15:33:39;23.20;;;12.60;;
57311;SDS011;43154;50.966;18.316;2022-10-16T15:36:05;22.70;;;12.80;;
57311;SDS011;43154;50.966;18.316;2022-10-16T15:38:31;25.60;;;12.80;;
57311;SDS011;43154;50.966;18.316;2022-10-16T15:40:57;24.10;;;13.30;;
57311;SDS011;43154;50.966;18.316;2022-10-16T15:43:22;28.60;;;12.90;;
57311;SDS011;43154;50.966;18.316;2022-10-16T15:46:22;27.10;;;14.10;;
57311;SDS011;43154;50.966;18.316;2022-10-16T15:48:40;22.50;;;13.60;;
57311;SDS011;43154;50.966;18.316;2022-10-16T15:51:06;24.20;;;13.80;;
57311;SDS011;43154;50.966;18.316;2022-10-16T15:53:32;28.90;;;14.20;;
57311;SDS011;43154;50.966;18.316;2022-10-16T15:56:02;27.40;;;14.50;;
57311;SDS011;43154;50.966;18.316;2022-10-16T15:58:29;30.70;;;14.30;;
57311;SDS011;43154;50.966;18.316;2022-10-16T16:00:58;26.80;;;14.60;;
57311;SDS011;43154;50.966;18.316;2022-10-16T16:03:28;30.40;;;14.70;;
57311;SDS011;43154;50.966;18.316;2022-10-16T16:05:55;27.00;;;13.40;;